SPKEA EPSK-EPGD
Flight info
| Callsign | SPKEA |
|---|---|
| Flight time | N/A |
| Altitude | 4500 |
| Route | DCT EPSKL DCT 5434N01651E/N0110A055 544002N0171234E STAY1/0013 5445N01733E/N0110A035 DCT VAPOS DCT 544420N0180540E/N0100A015 5436N01813E DCT EPGDI DCT EPGDM DCT EPGDN DCT |
| Aircraft | C172/L-SBDGR/C |
Departure
| Time | 2026-05-05 10:45 |
|---|---|
| Airport | Słupsk-Krȩpa Airfield (EPSK) |
Arrival
| Time | N/A |
|---|---|
| Airport | Gdańsk Lech Wałęsa Airport (EPGD) |
| Time | Latitude | Longitude | Altitude | Speed | Heading |
|---|---|---|---|---|---|
| 2026-05-05 10:31 | 54.41047 | 17.09776 | 252 ft | 0 kts | 182° |
| 2026-05-05 10:40 | 54.41045 | 17.09776 | 252 ft | 3 kts | 186° |
| 2026-05-05 10:40 | 54.40991 | 17.09756 | 252 ft | 10 kts | 191° |
| 2026-05-05 10:41 | 54.40924 | 17.09732 | 252 ft | 5 kts | 186° |
| 2026-05-05 10:41 | 54.40918 | 17.09678 | 252 ft | 10 kts | 293° |
| 2026-05-05 10:41 | 54.40943 | 17.09524 | 252 ft | 15 kts | 284° |
| 2026-05-05 10:41 | 54.40974 | 17.09323 | 252 ft | 18 kts | 285° |
| 2026-05-05 10:42 | 54.41041 | 17.08941 | 252 ft | 10 kts | 291° |
| 2026-05-05 10:42 | 54.41034 | 17.08934 | 252 ft | 4 kts | 107° |
| 2026-05-05 10:42 | 54.41032 | 17.08945 | 252 ft | 0 kts | 104° |
| 2026-05-05 10:44 | 54.41021 | 17.09040 | 252 ft | 22 kts | 103° |
| 2026-05-05 10:44 | 54.40951 | 17.09509 | 258 ft | 59 kts | 102° |
| 2026-05-05 10:44 | 54.40831 | 17.10199 | 428 ft | 61 kts | 101° |
| 2026-05-05 10:44 | 54.40722 | 17.10901 | 600 ft | 61 kts | 97° |
| 2026-05-05 10:45 | 54.40631 | 17.11601 | 761 ft | 61 kts | 100° |
| 2026-05-05 10:45 | 54.40545 | 17.12326 | 913 ft | 61 kts | 85° |
| 2026-05-05 10:45 | 54.40780 | 17.12882 | 1042 ft | 63 kts | 24° |
| 2026-05-05 10:45 | 54.41223 | 17.13059 | 1155 ft | 67 kts | 9° |
| 2026-05-05 10:46 | 54.41665 | 17.13205 | 1319 ft | 64 kts | 8° |
| 2026-05-05 10:46 | 54.42088 | 17.12868 | 1386 ft | 76 kts | 310° |
| 2026-05-05 10:46 | 54.42279 | 17.11990 | 1463 ft | 79 kts | 290° |
| 2026-05-05 10:46 | 54.42443 | 17.11119 | 1546 ft | 81 kts | 290° |
| 2026-05-05 10:47 | 54.42617 | 17.10187 | 1554 ft | 80 kts | 289° |
| 2026-05-05 10:47 | 54.42771 | 17.09258 | 1573 ft | 80 kts | 288° |
| 2026-05-05 10:47 | 54.42915 | 17.08316 | 1599 ft | 84 kts | 287° |
| 2026-05-05 10:47 | 54.43053 | 17.07348 | 1619 ft | 82 kts | 286° |
| 2026-05-05 10:48 | 54.43148 | 17.06387 | 1632 ft | 83 kts | 267° |
| 2026-05-05 10:48 | 54.42966 | 17.05447 | 1649 ft | 83 kts | 254° |
| 2026-05-05 10:48 | 54.42812 | 17.04510 | 1656 ft | 80 kts | 257° |
| 2026-05-05 10:48 | 54.42681 | 17.03569 | 1646 ft | 88 kts | 263° |
| 2026-05-05 10:49 | 54.42602 | 17.02504 | 1754 ft | 91 kts | 265° |
| 2026-05-05 10:49 | 54.42532 | 17.01403 | 1877 ft | 91 kts | 266° |
| 2026-05-05 10:49 | 54.42572 | 17.00330 | 1992 ft | 90 kts | 287° |
| 2026-05-05 10:49 | 54.42944 | 16.99507 | 2108 ft | 88 kts | 323° |
| 2026-05-05 10:50 | 54.43469 | 16.98975 | 2223 ft | 87 kts | 334° |
| 2026-05-05 10:50 | 54.44014 | 16.98527 | 2370 ft | 84 kts | 334° |
| 2026-05-05 10:50 | 54.44550 | 16.98093 | 2513 ft | 84 kts | 336° |
| 2026-05-05 10:50 | 54.45084 | 16.97698 | 2655 ft | 84 kts | 334° |
| 2026-05-05 10:51 | 54.45608 | 16.97268 | 2802 ft | 83 kts | 332° |
| 2026-05-05 10:51 | 54.46123 | 16.96810 | 2954 ft | 83 kts | 330° |
| 2026-05-05 10:51 | 54.46648 | 16.96365 | 3105 ft | 82 kts | 332° |
| 2026-05-05 10:51 | 54.47167 | 16.95934 | 3235 ft | 84 kts | 330° |
| 2026-05-05 10:52 | 54.47695 | 16.95455 | 3340 ft | 87 kts | 327° |
| 2026-05-05 10:52 | 54.48239 | 16.94940 | 3439 ft | 89 kts | 330° |
| 2026-05-05 10:52 | 54.48803 | 16.94472 | 3535 ft | 90 kts | 330° |
| 2026-05-05 10:52 | 54.49361 | 16.93974 | 3637 ft | 90 kts | 328° |
| 2026-05-05 10:53 | 54.49934 | 16.93496 | 3732 ft | 91 kts | 331° |
| 2026-05-05 10:53 | 54.50509 | 16.93027 | 3830 ft | 91 kts | 329° |
| 2026-05-05 10:53 | 54.51070 | 16.92514 | 3930 ft | 91 kts | 324° |
| 2026-05-05 10:53 | 54.51617 | 16.91958 | 4029 ft | 90 kts | 324° |
| 2026-05-05 10:54 | 54.52161 | 16.91426 | 4115 ft | 92 kts | 327° |
| 2026-05-05 10:54 | 54.52741 | 16.90920 | 4189 ft | 93 kts | 327° |
| 2026-05-05 10:54 | 54.53302 | 16.90377 | 4263 ft | 92 kts | 324° |
| 2026-05-05 10:54 | 54.53858 | 16.89821 | 4338 ft | 92 kts | 324° |
| 2026-05-05 10:55 | 54.54436 | 16.89316 | 4406 ft | 93 kts | 329° |
| 2026-05-05 10:55 | 54.55018 | 16.88826 | 4470 ft | 93 kts | 328° |
| 2026-05-05 10:55 | 54.55626 | 16.88325 | 4486 ft | 98 kts | 329° |
| 2026-05-05 10:55 | 54.56229 | 16.87771 | 4488 ft | 99 kts | 325° |
| 2026-05-05 10:56 | 54.56869 | 16.87283 | 4485 ft | 102 kts | 343° |
| 2026-05-05 10:56 | 54.57560 | 16.87367 | 4518 ft | 102 kts | 18° |
| 2026-05-05 10:56 | 54.58068 | 16.88182 | 4651 ft | 100 kts | 58° |
| 2026-05-05 10:56 | 54.58383 | 16.89245 | 4767 ft | 99 kts | 63° |
| 2026-05-05 10:57 | 54.58666 | 16.90320 | 4875 ft | 98 kts | 67° |
| 2026-05-05 10:57 | 54.58940 | 16.91401 | 4991 ft | 97 kts | 62° |
| 2026-05-05 10:57 | 54.59301 | 16.92381 | 5109 ft | 97 kts | 54° |
| 2026-05-05 10:57 | 54.59689 | 16.93337 | 5225 ft | 99 kts | 53° |
| 2026-05-05 10:58 | 54.60101 | 16.94335 | 5301 ft | 102 kts | 50° |
| 2026-05-05 10:58 | 54.60547 | 16.95309 | 5380 ft | 104 kts | 48° |
| 2026-05-05 10:58 | 54.61014 | 16.96272 | 5450 ft | 104 kts | 45° |
| 2026-05-05 10:58 | 54.61509 | 16.97204 | 5483 ft | 108 kts | 44° |
| 2026-05-05 10:59 | 54.62022 | 16.98185 | 5492 ft | 109 kts | 45° |
| 2026-05-05 10:59 | 54.62392 | 16.99255 | 5399 ft | 104 kts | 78° |
| 2026-05-05 10:59 | 54.62303 | 17.00446 | 5153 ft | 101 kts | 122° |
| 2026-05-05 10:59 | 54.61832 | 17.01187 | 4888 ft | 88 kts | 166° |
| 2026-05-05 11:00 | 54.61272 | 17.01162 | 4642 ft | 76 kts | 208° |
| 2026-05-05 11:00 | 54.60899 | 17.00627 | 4493 ft | 66 kts | 238° |
| 2026-05-05 11:00 | 54.60710 | 16.99987 | 4468 ft | 55 kts | 247° |
| 2026-05-05 11:00 | 54.60583 | 16.99404 | 4456 ft | 52 kts | 242° |
| 2026-05-05 11:01 | 54.60410 | 16.98783 | 4406 ft | 62 kts | 250° |
| 2026-05-05 11:01 | 54.60284 | 16.98054 | 4241 ft | 65 kts | 253° |
| 2026-05-05 11:01 | 54.60155 | 16.97308 | 4031 ft | 66 kts | 251° |
| 2026-05-05 11:01 | 54.60029 | 16.96502 | 3829 ft | 72 kts | 255° |
| 2026-05-05 11:02 | 54.59893 | 16.95681 | 3617 ft | 71 kts | 251° |
| 2026-05-05 11:02 | 54.59732 | 16.94868 | 3371 ft | 73 kts | 254° |
| 2026-05-05 11:02 | 54.59631 | 16.94003 | 3107 ft | 76 kts | 259° |
| 2026-05-05 11:02 | 54.59520 | 16.93118 | 2846 ft | 77 kts | 259° |
| 2026-05-05 11:03 | 54.59380 | 16.92209 | 2578 ft | 79 kts | 253° |
| 2026-05-05 11:03 | 54.59226 | 16.91343 | 2389 ft | 74 kts | 253° |
| 2026-05-05 11:03 | 54.59116 | 16.90507 | 2217 ft | 69 kts | 263° |
| 2026-05-05 11:03 | 54.59055 | 16.89658 | 1987 ft | 73 kts | 262° |
| 2026-05-05 11:04 | 54.58932 | 16.88849 | 2041 ft | 69 kts | 253° |
| 2026-05-05 11:04 | 54.58787 | 16.88048 | 2036 ft | 72 kts | 253° |
| 2026-05-05 11:04 | 54.58478 | 16.87352 | 1951 ft | 77 kts | 216° |
| 2026-05-05 11:04 | 54.57967 | 16.87034 | 1818 ft | 78 kts | 193° |
| 2026-05-05 11:05 | 54.57424 | 16.87036 | 1687 ft | 79 kts | 168° |
| 2026-05-05 11:05 | 54.56891 | 16.87288 | 1559 ft | 81 kts | 157° |
| 2026-05-05 11:05 | 54.56361 | 16.87689 | 1484 ft | 82 kts | 152° |
| 2026-05-05 11:05 | 54.55851 | 16.88117 | 1476 ft | 82 kts | 148° |
| 2026-05-05 11:06 | 54.55328 | 16.88571 | 1476 ft | 83 kts | 152° |
| 2026-05-05 11:06 | 54.54808 | 16.89002 | 1478 ft | 82 kts | 151° |
| 2026-05-05 11:06 | 54.54294 | 16.89439 | 1480 ft | 82 kts | 149° |
| 2026-05-05 11:06 | 54.53798 | 16.89936 | 1482 ft | 83 kts | 148° |
| 2026-05-05 11:07 | 54.53278 | 16.90420 | 1481 ft | 86 kts | 153° |
| 2026-05-05 11:07 | 54.52719 | 16.90834 | 1480 ft | 91 kts | 156° |
| 2026-05-05 11:07 | 54.52135 | 16.91316 | 1477 ft | 93 kts | 148° |
| 2026-05-05 11:07 | 54.51579 | 16.91859 | 1468 ft | 89 kts | 149° |
| 2026-05-05 11:08 | 54.51035 | 16.92353 | 1472 ft | 89 kts | 151° |
| 2026-05-05 11:08 | 54.50455 | 16.92813 | 1497 ft | 92 kts | 153° |
| 2026-05-05 11:08 | 54.49849 | 16.93266 | 1499 ft | 97 kts | 156° |
| 2026-05-05 11:08 | 54.49209 | 16.93659 | 1498 ft | 98 kts | 158° |
| 2026-05-05 11:09 | 54.48571 | 16.94049 | 1497 ft | 98 kts | 157° |
| 2026-05-05 11:09 | 54.47936 | 16.94494 | 1494 ft | 97 kts | 153° |
| 2026-05-05 11:09 | 54.47324 | 16.94988 | 1495 ft | 96 kts | 152° |
| 2026-05-05 11:09 | 54.46715 | 16.95488 | 1500 ft | 96 kts | 152° |
| 2026-05-05 11:10 | 54.46104 | 16.95964 | 1502 ft | 96 kts | 153° |
| 2026-05-05 11:10 | 54.45495 | 16.96431 | 1499 ft | 96 kts | 154° |
| 2026-05-05 11:10 | 54.44879 | 16.96858 | 1497 ft | 95 kts | 155° |
| 2026-05-05 11:10 | 54.44305 | 16.97400 | 1496 ft | 93 kts | 138° |
| 2026-05-05 11:11 | 54.43821 | 16.98149 | 1497 ft | 93 kts | 131° |
| 2026-05-05 11:11 | 54.43380 | 16.98974 | 1499 ft | 93 kts | 128° |
| 2026-05-05 11:11 | 54.42946 | 16.99808 | 1501 ft | 94 kts | 128° |
| 2026-05-05 11:11 | 54.42568 | 17.00710 | 1482 ft | 93 kts | 113° |
| 2026-05-05 11:12 | 54.42329 | 17.01752 | 1377 ft | 96 kts | 105° |
| 2026-05-05 11:12 | 54.42104 | 17.02838 | 1246 ft | 96 kts | 106° |
| 2026-05-05 11:12 | 54.41880 | 17.03900 | 1095 ft | 95 kts | 105° |
| 2026-05-05 11:12 | 54.41677 | 17.04983 | 961 ft | 94 kts | 104° |
| 2026-05-05 11:13 | 54.41481 | 17.06047 | 813 ft | 94 kts | 104° |
| 2026-05-05 11:13 | 54.41319 | 17.07011 | 711 ft | 77 kts | 102° |
| 2026-05-05 11:13 | 54.41189 | 17.07879 | 478 ft | 74 kts | 101° |
| 2026-05-05 11:13 | 54.41063 | 17.08730 | 257 ft | 72 kts | 103° |
| 2026-05-05 11:14 | 54.40964 | 17.09392 | 252 ft | 41 kts | 104° |
| 2026-05-05 11:14 | 54.40936 | 17.09583 | 252 ft | 4 kts | 98° |
| 2026-05-05 11:14 | 54.40928 | 17.09728 | 252 ft | 9 kts | 28° |
| 2026-05-05 11:14 | 54.40967 | 17.09733 | 252 ft | 5 kts | 1° |
| 2026-05-05 11:15 | 54.41008 | 17.09736 | 252 ft | 6 kts | 1° |
| 2026-05-05 11:15 | 54.41030 | 17.09730 | 252 ft | 0 kts | 194° |